sensor_id;sensor_type;location;lat;lon;timestamp;P1;durP1;ratioP1;P2;durP2;ratioP2
3689;SDS011;1861;50.240;8.596;2022-12-18T00:00:03;22.23;;;10.17;;
3689;SDS011;1861;50.240;8.596;2022-12-18T00:02:40;18.33;;;8.80;;
3689;SDS011;1861;50.240;8.596;2022-12-18T00:05:08;20.70;;;9.57;;
3689;SDS011;1861;50.240;8.596;2022-12-18T00:07:36;23.83;;;11.17;;
3689;SDS011;1861;50.240;8.596;2022-12-18T00:10:05;18.70;;;9.90;;
3689;SDS011;1861;50.240;8.596;2022-12-18T00:12:34;25.37;;;10.70;;
3689;SDS011;1861;50.240;8.596;2022-12-18T00:15:02;21.73;;;9.80;;
3689;SDS011;1861;50.240;8.596;2022-12-18T00:17:31;23.13;;;9.13;;
3689;SDS011;1861;50.240;8.596;2022-12-18T00:20:00;27.67;;;13.47;;
3689;SDS011;1861;50.240;8.596;2022-12-18T00:22:28;27.83;;;12.40;;
3689;SDS011;1861;50.240;8.596;2022-12-18T00:24:56;18.00;;;9.80;;
3689;SDS011;1861;50.240;8.596;2022-12-18T00:27:24;22.60;;;10.20;;
3689;SDS011;1861;50.240;8.596;2022-12-18T00:29:52;22.67;;;10.97;;
3689;SDS011;1861;50.240;8.596;2022-12-18T00:32:20;27.13;;;11.20;;
3689;SDS011;1861;50.240;8.596;2022-12-18T00:34:49;24.40;;;10.80;;
3689;SDS011;1861;50.240;8.596;2022-12-18T00:37:18;24.70;;;10.60;;
3689;SDS011;1861;50.240;8.596;2022-12-18T00:39:49;22.20;;;10.40;;
3689;SDS011;1861;50.240;8.596;2022-12-18T00:42:18;24.57;;;11.03;;
3689;SDS011;1861;50.240;8.596;2022-12-18T00:45:04;27.30;;;11.07;;
3689;SDS011;1861;50.240;8.596;2022-12-18T00:47:38;24.40;;;10.20;;
3689;SDS011;1861;50.240;8.596;2022-12-18T00:50:07;27.10;;;11.67;;
3689;SDS011;1861;50.240;8.596;2022-12-18T00:52:41;26.20;;;11.43;;
3689;SDS011;1861;50.240;8.596;2022-12-18T00:55:09;26.30;;;11.60;;
3689;SDS011;1861;50.240;8.596;2022-12-18T00:57:38;23.67;;;10.27;;
3689;SDS011;1861;50.240;8.596;2022-12-18T01:00:08;27.93;;;13.17;;
3689;SDS011;1861;50.240;8.596;2022-12-18T01:02:37;22.63;;;11.20;;
3689;SDS011;1861;50.240;8.596;2022-12-18T01:05:06;23.80;;;11.00;;
3689;SDS011;1861;50.240;8.596;2022-12-18T01:07:35;25.00;;;11.63;;
3689;SDS011;1861;50.240;8.596;2022-12-18T01:10:06;23.57;;;10.70;;
3689;SDS011;1861;50.240;8.596;2022-12-18T01:12:35;26.50;;;12.03;;
3689;SDS011;1861;50.240;8.596;2022-12-18T01:15:04;23.47;;;12.10;;
3689;SDS011;1861;50.240;8.596;2022-12-18T01:17:33;24.90;;;11.97;;
3689;SDS011;1861;50.240;8.596;2022-12-18T01:20:02;22.77;;;11.13;;
3689;SDS011;1861;50.240;8.596;2022-12-18T01:22:35;27.40;;;11.67;;
3689;SDS011;1861;50.240;8.596;2022-12-18T01:25:08;28.10;;;13.63;;
3689;SDS011;1861;50.240;8.596;2022-12-18T01:27:36;31.83;;;14.57;;
3689;SDS011;1861;50.240;8.596;2022-12-18T01:30:04;29.37;;;14.20;;
3689;SDS011;1861;50.240;8.596;2022-12-18T01:32:33;27.77;;;14.70;;
3689;SDS011;1861;50.240;8.596;2022-12-18T01:35:02;26.13;;;12.07;;
3689;SDS011;1861;50.240;8.596;2022-12-18T01:37:30;30.80;;;13.40;;
3689;SDS011;1861;50.240;8.596;2022-12-18T01:39:58;37.00;;;12.80;;
3689;SDS011;1861;50.240;8.596;2022-12-18T01:42:28;27.23;;;12.60;;
3689;SDS011;1861;50.240;8.596;2022-12-18T01:44:58;25.50;;;13.20;;
3689;SDS011;1861;50.240;8.596;2022-12-18T01:47:38;30.10;;;11.63;;
3689;SDS011;1861;50.240;8.596;2022-12-18T01:50:11;31.37;;;13.00;;
3689;SDS011;1861;50.240;8.596;2022-12-18T01:52:42;25.23;;;12.10;;
3689;SDS011;1861;50.240;8.596;2022-12-18T01:55:14;27.97;;;11.80;;
3689;SDS011;1861;50.240;8.596;2022-12-18T01:57:47;19.40;;;10.50;;
3689;SDS011;1861;50.240;8.596;2022-12-18T02:00:17;25.43;;;11.77;;
3689;SDS011;1861;50.240;8.596;2022-12-18T02:02:47;20.97;;;10.00;;
3689;SDS011;1861;50.240;8.596;2022-12-18T02:05:18;20.70;;;11.10;;
3689;SDS011;1861;50.240;8.596;2022-12-18T02:08:03;19.83;;;10.83;;
3689;SDS011;1861;50.240;8.596;2022-12-18T02:10:41;19.37;;;10.77;;
3689;SDS011;1861;50.240;8.596;2022-12-18T02:13:20;19.60;;;9.87;;
3689;SDS011;1861;50.240;8.596;2022-12-18T02:15:57;25.17;;;11.60;;
3689;SDS011;1861;50.240;8.596;2022-12-18T02:18:30;21.00;;;10.27;;
3689;SDS011;1861;50.240;8.596;2022-12-18T02:21:04;24.43;;;10.50;;
3689;SDS011;1861;50.240;8.596;2022-12-18T02:23:44;23.77;;;11.07;;
3689;SDS011;1861;50.240;8.596;2022-12-18T02:26:21;20.87;;;9.00;;
3689;SDS011;1861;50.240;8.596;2022-12-18T02:28:55;19.33;;;9.47;;
3689;SDS011;1861;50.240;8.596;2022-12-18T02:31:29;23.07;;;10.70;;
3689;SDS011;1861;50.240;8.596;2022-12-18T02:34:02;22.47;;;10.20;;
3689;SDS011;1861;50.240;8.596;2022-12-18T02:36:36;25.70;;;10.60;;
3689;SDS011;1861;50.240;8.596;2022-12-18T02:39:09;17.90;;;9.43;;
3689;SDS011;1861;50.240;8.596;2022-12-18T02:41:50;23.03;;;10.70;;
3689;SDS011;1861;50.240;8.596;2022-12-18T02:44:20;23.40;;;10.33;;
3689;SDS011;1861;50.240;8.596;2022-12-18T02:46:48;21.70;;;10.07;;
3689;SDS011;1861;50.240;8.596;2022-12-18T02:49:26;21.27;;;10.07;;
3689;SDS011;1861;50.240;8.596;2022-12-18T02:52:02;17.70;;;9.37;;
3689;SDS011;1861;50.240;8.596;2022-12-18T02:54:40;22.30;;;10.10;;
3689;SDS011;1861;50.240;8.596;2022-12-18T02:57:20;20.33;;;8.73;;
3689;SDS011;1861;50.240;8.596;2022-12-18T02:59:58;17.80;;;8.83;;
3689;SDS011;1861;50.240;8.596;2022-12-18T03:02:32;16.77;;;8.60;;
3689;SDS011;1861;50.240;8.596;2022-12-18T03:05:07;19.00;;;10.40;;
3689;SDS011;1861;50.240;8.596;2022-12-18T03:07:42;21.13;;;8.53;;
3689;SDS011;1861;50.240;8.596;2022-12-18T03:10:16;18.80;;;8.93;;
3689;SDS011;1861;50.240;8.596;2022-12-18T03:12:52;16.53;;;8.50;;
3689;SDS011;1861;50.240;8.596;2022-12-18T03:15:24;18.40;;;8.90;;
3689;SDS011;1861;50.240;8.596;2022-12-18T03:18:04;20.00;;;9.20;;
3689;SDS011;1861;50.240;8.596;2022-12-18T03:20:38;20.53;;;9.70;;
3689;SDS011;1861;50.240;8.596;2022-12-18T03:23:13;21.17;;;9.20;;
3689;SDS011;1861;50.240;8.596;2022-12-18T03:25:48;17.57;;;8.80;;
3689;SDS011;1861;50.240;8.596;2022-12-18T03:28:23;20.27;;;9.03;;
3689;SDS011;1861;50.240;8.596;2022-12-18T03:30:58;18.17;;;9.13;;
3689;SDS011;1861;50.240;8.596;2022-12-18T03:33:29;17.33;;;8.67;;
3689;SDS011;1861;50.240;8.596;2022-12-18T03:36:02;15.13;;;9.47;;
3689;SDS011;1861;50.240;8.596;2022-12-18T03:38:32;15.37;;;8.73;;
3689;SDS011;1861;50.240;8.596;2022-12-18T03:41:02;20.80;;;9.87;;
3689;SDS011;1861;50.240;8.596;2022-12-18T03:43:48;15.10;;;8.70;;
3689;SDS011;1861;50.240;8.596;2022-12-18T03:46:23;19.47;;;9.23;;
3689;SDS011;1861;50.240;8.596;2022-12-18T03:48:58;17.67;;;9.50;;
3689;SDS011;1861;50.240;8.596;2022-12-18T03:51:31;15.60;;;8.23;;
3689;SDS011;1861;50.240;8.596;2022-12-18T03:54:06;15.17;;;8.43;;
3689;SDS011;1861;50.240;8.596;2022-12-18T03:56:42;16.47;;;8.17;;
3689;SDS011;1861;50.240;8.596;2022-12-18T03:59:16;15.97;;;8.27;;
3689;SDS011;1861;50.240;8.596;2022-12-18T04:01:47;15.20;;;7.50;;
3689;SDS011;1861;50.240;8.596;2022-12-18T04:04:19;18.03;;;9.10;;
3689;SDS011;1861;50.240;8.596;2022-12-18T04:06:49;15.63;;;8.87;;
3689;SDS011;1861;50.240;8.596;2022-12-18T04:09:18;14.17;;;7.53;;
3689;SDS011;1861;50.240;8.596;2022-12-18T04:11:47;13.70;;;8.70;;
3689;SDS011;1861;50.240;8.596;2022-12-18T04:14:17;15.60;;;7.57;;
3689;SDS011;1861;50.240;8.596;2022-12-18T04:16:49;15.83;;;8.50;;
3689;SDS011;1861;50.240;8.596;2022-12-18T04:19:22;15.70;;;8.00;;
3689;SDS011;1861;50.240;8.596;2022-12-18T04:21:52;14.77;;;8.10;;
3689;SDS011;1861;50.240;8.596;2022-12-18T04:24:20;15.57;;;9.10;;
3689;SDS011;1861;50.240;8.596;2022-12-18T04:27:02;13.80;;;7.57;;
3689;SDS011;1861;50.240;8.596;2022-12-18T04:29:39;17.90;;;8.10;;
3689;SDS011;1861;50.240;8.596;2022-12-18T04:32:07;15.60;;;6.60;;
3689;SDS011;1861;50.240;8.596;2022-12-18T04:34:36;17.77;;;8.77;;
3689;SDS011;1861;50.240;8.596;2022-12-18T04:37:04;15.00;;;7.70;;
3689;SDS011;1861;50.240;8.596;2022-12-18T04:39:33;12.60;;;6.87;;
3689;SDS011;1861;50.240;8.596;2022-12-18T04:42:07;12.43;;;6.97;;
3689;SDS011;1861;50.240;8.596;2022-12-18T04:44:35;14.03;;;7.20;;
3689;SDS011;1861;50.240;8.596;2022-12-18T04:47:05;14.97;;;7.30;;
3689;SDS011;1861;50.240;8.596;2022-12-18T04:49:33;13.63;;;7.57;;
3689;SDS011;1861;50.240;8.596;2022-12-18T04:52:01;14.53;;;7.77;;
3689;SDS011;1861;50.240;8.596;2022-12-18T04:54:29;14.83;;;7.97;;
3689;SDS011;1861;50.240;8.596;2022-12-18T04:56:57;14.13;;;7.40;;
3689;SDS011;1861;50.240;8.596;2022-12-18T04:59:25;16.83;;;7.20;;
3689;SDS011;1861;50.240;8.596;2022-12-18T05:01:53;19.40;;;8.27;;
3689;SDS011;1861;50.240;8.596;2022-12-18T05:04:23;20.73;;;7.67;;
3689;SDS011;1861;50.240;8.596;2022-12-18T05:06:51;14.40;;;7.60;;
3689;SDS011;1861;50.240;8.596;2022-12-18T05:09:19;13.73;;;7.50;;
3689;SDS011;1861;50.240;8.596;2022-12-18T05:11:47;17.63;;;8.00;;
3689;SDS011;1861;50.240;8.596;2022-12-18T05:14:15;12.80;;;7.60;;
3689;SDS011;1861;50.240;8.596;2022-12-18T05:16:45;13.07;;;7.57;;
3689;SDS011;1861;50.240;8.596;2022-12-18T05:19:13;14.70;;;7.57;;
3689;SDS011;1861;50.240;8.596;2022-12-18T05:21:42;18.17;;;8.30;;
3689;SDS011;1861;50.240;8.596;2022-12-18T05:24:11;13.70;;;7.50;;
3689;SDS011;1861;50.240;8.596;2022-12-18T05:26:39;15.00;;;7.40;;
3689;SDS011;1861;50.240;8.596;2022-12-18T05:29:07;15.83;;;8.33;;
3689;SDS011;1861;50.240;8.596;2022-12-18T05:31:39;12.97;;;7.90;;
3689;SDS011;1861;50.240;8.596;2022-12-18T05:34:08;13.17;;;7.97;;
3689;SDS011;1861;50.240;8.596;2022-12-18T05:36:38;17.60;;;8.03;;
3689;SDS011;1861;50.240;8.596;2022-12-18T05:39:07;17.63;;;9.00;;
3689;SDS011;1861;50.240;8.596;2022-12-18T05:41:35;14.73;;;8.40;;
3689;SDS011;1861;50.240;8.596;2022-12-18T05:44:03;14.07;;;7.57;;
3689;SDS011;1861;50.240;8.596;2022-12-18T05:46:31;13.07;;;7.70;;
3689;SDS011;1861;50.240;8.596;2022-12-18T05:49:00;18.37;;;8.73;;
3689;SDS011;1861;50.240;8.596;2022-12-18T05:51:28;17.80;;;9.00;;
3689;SDS011;1861;50.240;8.596;2022-12-18T05:53:56;18.17;;;8.30;;
3689;SDS011;1861;50.240;8.596;2022-12-18T05:56:25;14.83;;;8.63;;
3689;SDS011;1861;50.240;8.596;2022-12-18T05:58:53;17.60;;;8.87;;
3689;SDS011;1861;50.240;8.596;2022-12-18T06:01:22;18.87;;;8.20;;
3689;SDS011;1861;50.240;8.596;2022-12-18T06:03:52;18.13;;;8.67;;
3689;SDS011;1861;50.240;8.596;2022-12-18T06:06:21;14.27;;;7.70;;
3689;SDS011;1861;50.240;8.596;2022-12-18T06:08:51;15.00;;;7.50;;
3689;SDS011;1861;50.240;8.596;2022-12-18T06:11:21;23.03;;;9.37;;
3689;SDS011;1861;50.240;8.596;2022-12-18T06:13:52;16.60;;;8.70;;
3689;SDS011;1861;50.240;8.596;2022-12-18T06:16:24;19.83;;;9.20;;
3689;SDS011;1861;50.240;8.596;2022-12-18T06:18:53;15.47;;;8.20;;
3689;SDS011;1861;50.240;8.596;2022-12-18T06:21:23;18.97;;;9.13;;
3689;SDS011;1861;50.240;8.596;2022-12-18T06:23:51;20.33;;;9.20;;
3689;SDS011;1861;50.240;8.596;2022-12-18T06:26:19;19.97;;;9.23;;
3689;SDS011;1861;50.240;8.596;2022-12-18T06:28:54;17.83;;;8.33;;
3689;SDS011;1861;50.240;8.596;2022-12-18T06:31:24;18.00;;;9.10;;
3689;SDS011;1861;50.240;8.596;2022-12-18T06:33:52;17.93;;;10.00;;
3689;SDS011;1861;50.240;8.596;2022-12-18T06:36:20;16.23;;;8.90;;
3689;SDS011;1861;50.240;8.596;2022-12-18T06:38:48;19.47;;;9.43;;
3689;SDS011;1861;50.240;8.596;2022-12-18T06:41:17;21.10;;;9.27;;
3689;SDS011;1861;50.240;8.596;2022-12-18T06:43:46;20.27;;;9.83;;
3689;SDS011;1861;50.240;8.596;2022-12-18T06:46:16;22.77;;;10.77;;
3689;SDS011;1861;50.240;8.596;2022-12-18T06:48:46;21.83;;;9.00;;
3689;SDS011;1861;50.240;8.596;2022-12-18T06:51:16;21.23;;;10.13;;
3689;SDS011;1861;50.240;8.596;2022-12-18T06:53:51;19.10;;;10.30;;
3689;SDS011;1861;50.240;8.596;2022-12-18T06:56:20;19.90;;;9.93;;
3689;SDS011;1861;50.240;8.596;2022-12-18T06:58:51;22.93;;;9.63;;
3689;SDS011;1861;50.240;8.596;2022-12-18T07:01:21;20.30;;;9.73;;
3689;SDS011;1861;50.240;8.596;2022-12-18T07:03:51;18.90;;;8.73;;
3689;SDS011;1861;50.240;8.596;2022-12-18T07:06:21;30.23;;;10.93;;
3689;SDS011;1861;50.240;8.596;2022-12-18T07:08:51;22.07;;;10.90;;
3689;SDS011;1861;50.240;8.596;2022-12-18T07:11:21;22.60;;;8.97;;
3689;SDS011;1861;50.240;8.596;2022-12-18T07:13:49;17.03;;;10.03;;
3689;SDS011;1861;50.240;8.596;2022-12-18T07:16:18;16.90;;;9.60;;
3689;SDS011;1861;50.240;8.596;2022-12-18T07:18:53;20.80;;;10.50;;
3689;SDS011;1861;50.240;8.596;2022-12-18T07:21:23;19.33;;;9.57;;
3689;SDS011;1861;50.240;8.596;2022-12-18T07:23:52;20.30;;;10.20;;
3689;SDS011;1861;50.240;8.596;2022-12-18T07:26:20;26.30;;;11.97;;
3689;SDS011;1861;50.240;8.596;2022-12-18T07:28:49;21.40;;;9.57;;
3689;SDS011;1861;50.240;8.596;2022-12-18T07:31:19;22.17;;;11.10;;
3689;SDS011;1861;50.240;8.596;2022-12-18T07:33:49;17.93;;;10.20;;
3689;SDS011;1861;50.240;8.596;2022-12-18T07:36:27;23.00;;;10.63;;
3689;SDS011;1861;50.240;8.596;2022-12-18T07:38:55;23.93;;;10.13;;
3689;SDS011;1861;50.240;8.596;2022-12-18T07:41:23;20.43;;;10.37;;
3689;SDS011;1861;50.240;8.596;2022-12-18T07:43:51;22.20;;;10.70;;
3689;SDS011;1861;50.240;8.596;2022-12-18T07:46:19;19.20;;;10.20;;
3689;SDS011;1861;50.240;8.596;2022-12-18T07:48:47;21.73;;;10.67;;
3689;SDS011;1861;50.240;8.596;2022-12-18T07:51:16;23.47;;;11.00;;
3689;SDS011;1861;50.240;8.596;2022-12-18T07:53:45;21.40;;;9.60;;
3689;SDS011;1861;50.240;8.596;2022-12-18T07:56:18;20.53;;;9.87;;
3689;SDS011;1861;50.240;8.596;2022-12-18T07:58:57;19.63;;;10.80;;
3689;SDS011;1861;50.240;8.596;2022-12-18T08:01:26;22.07;;;10.30;;
3689;SDS011;1861;50.240;8.596;2022-12-18T08:03:55;19.80;;;9.43;;
3689;SDS011;1861;50.240;8.596;2022-12-18T08:06:23;23.97;;;10.20;;
3689;SDS011;1861;50.240;8.596;2022-12-18T08:08:53;18.60;;;10.30;;
3689;SDS011;1861;50.240;8.596;2022-12-18T08:11:22;20.40;;;9.70;;
3689;SDS011;1861;50.240;8.596;2022-12-18T08:13:51;19.13;;;10.67;;
3689;SDS011;1861;50.240;8.596;2022-12-18T08:16:20;24.57;;;11.90;;
3689;SDS011;1861;50.240;8.596;2022-12-18T08:18:49;16.77;;;9.13;;
3689;SDS011;1861;50.240;8.596;2022-12-18T08:21:20;20.13;;;10.70;;
3689;SDS011;1861;50.240;8.596;2022-12-18T08:23:50;22.77;;;10.77;;
3689;SDS011;1861;50.240;8.596;2022-12-18T08:26:21;23.53;;;10.70;;
3689;SDS011;1861;50.240;8.596;2022-12-18T08:28:50;19.90;;;10.40;;
3689;SDS011;1861;50.240;8.596;2022-12-18T08:31:19;21.83;;;11.70;;
3689;SDS011;1861;50.240;8.596;2022-12-18T08:33:49;24.20;;;11.03;;
3689;SDS011;1861;50.240;8.596;2022-12-18T08:36:19;18.57;;;9.90;;
3689;SDS011;1861;50.240;8.596;2022-12-18T08:38:47;22.00;;;11.53;;
3689;SDS011;1861;50.240;8.596;2022-12-18T08:41:17;19.60;;;10.30;;
3689;SDS011;1861;50.240;8.596;2022-12-18T08:43:45;22.03;;;9.90;;
3689;SDS011;1861;50.240;8.596;2022-12-18T08:46:32;16.67;;;10.10;;
3689;SDS011;1861;50.240;8.596;2022-12-18T08:49:02;20.40;;;11.30;;
3689;SDS011;1861;50.240;8.596;2022-12-18T08:51:31;22.30;;;11.00;;
3689;SDS011;1861;50.240;8.596;2022-12-18T08:53:59;22.30;;;10.60;;
3689;SDS011;1861;50.240;8.596;2022-12-18T08:56:29;22.50;;;10.93;;
3689;SDS011;1861;50.240;8.596;2022-12-18T08:58:57;23.80;;;11.13;;
3689;SDS011;1861;50.240;8.596;2022-12-18T09:01:26;22.27;;;11.63;;
3689;SDS011;1861;50.240;8.596;2022-12-18T09:03:54;25.57;;;11.67;;
3689;SDS011;1861;50.240;8.596;2022-12-18T09:06:23;20.70;;;11.73;;
3689;SDS011;1861;50.240;8.596;2022-12-18T09:08:52;23.03;;;10.57;;
3689;SDS011;1861;50.240;8.596;2022-12-18T09:11:21;23.03;;;11.27;;
3689;SDS011;1861;50.240;8.596;2022-12-18T09:13:52;24.30;;;11.53;;
3689;SDS011;1861;50.240;8.596;2022-12-18T09:16:21;25.17;;;12.57;;
3689;SDS011;1861;50.240;8.596;2022-12-18T09:18:57;22.47;;;11.80;;
3689;SDS011;1861;50.240;8.596;2022-12-18T09:21:27;28.77;;;11.53;;
3689;SDS011;1861;50.240;8.596;2022-12-18T09:23:58;22.17;;;12.10;;
3689;SDS011;1861;50.240;8.596;2022-12-18T09:26:26;25.43;;;11.33;;
3689;SDS011;1861;50.240;8.596;2022-12-18T09:28:56;18.20;;;10.67;;
3689;SDS011;1861;50.240;8.596;2022-12-18T09:31:24;22.47;;;10.70;;
3689;SDS011;1861;50.240;8.596;2022-12-18T09:33:52;21.20;;;10.23;;
3689;SDS011;1861;50.240;8.596;2022-12-18T09:36:22;21.10;;;11.00;;
3689;SDS011;1861;50.240;8.596;2022-12-18T09:38:50;24.50;;;11.30;;
3689;SDS011;1861;50.240;8.596;2022-12-18T09:41:33;23.43;;;11.90;;
3689;SDS011;1861;50.240;8.596;2022-12-18T09:44:13;24.10;;;11.57;;
3689;SDS011;1861;50.240;8.596;2022-12-18T09:46:47;19.30;;;11.20;;
3689;SDS011;1861;50.240;8.596;2022-12-18T09:49:22;20.33;;;10.30;;
3689;SDS011;1861;50.240;8.596;2022-12-18T09:51:54;27.20;;;11.40;;
3689;SDS011;1861;50.240;8.596;2022-12-18T09:54:29;18.30;;;10.80;;
3689;SDS011;1861;50.240;8.596;2022-12-18T09:57:01;24.53;;;12.20;;
3689;SDS011;1861;50.240;8.596;2022-12-18T09:59:32;20.50;;;10.50;;
3689;SDS011;1861;50.240;8.596;2022-12-18T10:02:11;24.97;;;11.53;;
3689;SDS011;1861;50.240;8.596;2022-12-18T10:04:42;18.80;;;10.50;;
3689;SDS011;1861;50.240;8.596;2022-12-18T10:07:13;27.13;;;13.50;;
3689;SDS011;1861;50.240;8.596;2022-12-18T10:09:48;28.27;;;12.83;;
3689;SDS011;1861;50.240;8.596;2022-12-18T10:12:27;28.80;;;12.57;;
3689;SDS011;1861;50.240;8.596;2022-12-18T10:15:02;29.50;;;14.23;;
3689;SDS011;1861;50.240;8.596;2022-12-18T10:17:37;33.63;;;15.33;;
3689;SDS011;1861;50.240;8.596;2022-12-18T10:20:12;33.23;;;14.13;;
3689;SDS011;1861;50.240;8.596;2022-12-18T10:22:45;29.40;;;14.63;;
3689;SDS011;1861;50.240;8.596;2022-12-18T10:25:21;27.67;;;13.97;;
3689;SDS011;1861;50.240;8.596;2022-12-18T10:27:53;37.30;;;15.43;;
3689;SDS011;1861;50.240;8.596;2022-12-18T10:30:26;29.33;;;14.37;;
3689;SDS011;1861;50.240;8.596;2022-12-18T10:32:54;23.70;;;13.63;;
3689;SDS011;1861;50.240;8.596;2022-12-18T10:35:27;26.90;;;13.97;;
3689;SDS011;1861;50.240;8.596;2022-12-18T10:37:59;27.97;;;13.40;;
3689;SDS011;1861;50.240;8.596;2022-12-18T10:40:28;25.27;;;13.87;;
3689;SDS011;1861;50.240;8.596;2022-12-18T10:43:03;30.67;;;15.63;;
3689;SDS011;1861;50.240;8.596;2022-12-18T10:45:35;38.23;;;16.50;;
3689;SDS011;1861;50.240;8.596;2022-12-18T10:48:03;31.10;;;15.53;;
3689;SDS011;1861;50.240;8.596;2022-12-18T10:50:32;34.90;;;15.70;;
3689;SDS011;1861;50.240;8.596;2022-12-18T10:53:22;29.73;;;13.97;;
3689;SDS011;1861;50.240;8.596;2022-12-18T10:55:53;33.77;;;17.03;;
3689;SDS011;1861;50.240;8.596;2022-12-18T10:58:25;31.77;;;16.40;;
3689;SDS011;1861;50.240;8.596;2022-12-18T11:01:04;39.37;;;16.73;;
3689;SDS011;1861;50.240;8.596;2022-12-18T11:03:35;39.80;;;18.87;;
3689;SDS011;1861;50.240;8.596;2022-12-18T11:06:05;35.83;;;16.73;;
3689;SDS011;1861;50.240;8.596;2022-12-18T11:08:35;31.57;;;17.30;;
3689;SDS011;1861;50.240;8.596;2022-12-18T11:11:06;43.43;;;18.83;;
3689;SDS011;1861;50.240;8.596;2022-12-18T11:13:43;37.43;;;17.80;;
3689;SDS011;1861;50.240;8.596;2022-12-18T11:16:32;43.00;;;18.03;;
3689;SDS011;1861;50.240;8.596;2022-12-18T11:19:12;38.10;;;18.10;;
3689;SDS011;1861;50.240;8.596;2022-12-18T11:21:48;35.90;;;17.23;;
3689;SDS011;1861;50.240;8.596;2022-12-18T11:24:19;34.63;;;17.97;;
3689;SDS011;1861;50.240;8.596;2022-12-18T11:26:50;38.73;;;16.90;;
3689;SDS011;1861;50.240;8.596;2022-12-18T11:29:27;33.60;;;17.13;;
3689;SDS011;1861;50.240;8.596;2022-12-18T11:32:18;34.67;;;16.57;;
3689;SDS011;1861;50.240;8.596;2022-12-18T11:34:55;36.80;;;17.73;;
3689;SDS011;1861;50.240;8.596;2022-12-18T11:37:28;41.63;;;18.83;;
3689;SDS011;1861;50.240;8.596;2022-12-18T11:40:00;40.10;;;17.70;;
3689;SDS011;1861;50.240;8.596;2022-12-18T11:42:34;37.27;;;17.20;;
3689;SDS011;1861;50.240;8.596;2022-12-18T11:45:14;44.10;;;16.50;;
3689;SDS011;1861;50.240;8.596;2022-12-18T11:47:54;38.90;;;17.33;;
3689;SDS011;1861;50.240;8.596;2022-12-18T11:50:28;36.37;;;16.20;;
3689;SDS011;1861;50.240;8.596;2022-12-18T11:53:01;40.47;;;18.30;;
3689;SDS011;1861;50.240;8.596;2022-12-18T11:55:46;40.73;;;16.73;;
3689;SDS011;1861;50.240;8.596;2022-12-18T11:58:20;46.73;;;16.67;;
3689;SDS011;1861;50.240;8.596;2022-12-18T12:00:59;34.20;;;15.20;;
3689;SDS011;1861;50.240;8.596;2022-12-18T12:03:46;40.17;;;16.87;;
3689;SDS011;1861;50.240;8.596;2022-12-18T12:06:21;38.90;;;17.43;;
3689;SDS011;1861;50.240;8.596;2022-12-18T12:08:57;41.60;;;17.03;;
3689;SDS011;1861;50.240;8.596;2022-12-18T12:11:34;38.10;;;17.27;;
3689;SDS011;1861;50.240;8.596;2022-12-18T12:14:23;37.23;;;15.80;;
3689;SDS011;1861;50.240;8.596;2022-12-18T12:17:02;42.83;;;16.70;;
3689;SDS011;1861;50.240;8.596;2022-12-18T12:19:40;38.80;;;17.10;;
3689;SDS011;1861;50.240;8.596;2022-12-18T12:22:18;54.60;;;22.10;;
3689;SDS011;1861;50.240;8.596;2022-12-18T12:24:58;42.57;;;18.10;;
3689;SDS011;1861;50.240;8.596;2022-12-18T12:27:40;44.43;;;18.43;;
3689;SDS011;1861;50.240;8.596;2022-12-18T12:30:18;36.13;;;16.70;;
3689;SDS011;1861;50.240;8.596;2022-12-18T12:32:59;35.63;;;17.70;;
3689;SDS011;1861;50.240;8.596;2022-12-18T12:35:39;39.90;;;17.13;;
3689;SDS011;1861;50.240;8.596;2022-12-18T12:38:15;39.40;;;17.83;;
3689;SDS011;1861;50.240;8.596;2022-12-18T12:40:47;45.70;;;18.60;;
3689;SDS011;1861;50.240;8.596;2022-12-18T12:43:31;48.07;;;17.60;;
3689;SDS011;1861;50.240;8.596;2022-12-18T12:46:06;40.23;;;16.47;;
3689;SDS011;1861;50.240;8.596;2022-12-18T12:48:38;43.33;;;17.57;;
3689;SDS011;1861;50.240;8.596;2022-12-18T12:51:14;41.27;;;17.60;;
3689;SDS011;1861;50.240;8.596;2022-12-18T12:53:45;46.03;;;19.37;;
3689;SDS011;1861;50.240;8.596;2022-12-18T12:56:15;46.70;;;20.30;;
3689;SDS011;1861;50.240;8.596;2022-12-18T12:58:48;43.00;;;17.50;;
3689;SDS011;1861;50.240;8.596;2022-12-18T13:01:25;51.73;;;19.97;;
3689;SDS011;1861;50.240;8.596;2022-12-18T13:04:02;43.73;;;16.83;;
3689;SDS011;1861;50.240;8.596;2022-12-18T13:06:40;41.80;;;17.60;;
3689;SDS011;1861;50.240;8.596;2022-12-18T13:09:13;41.90;;;17.10;;
3689;SDS011;1861;50.240;8.596;2022-12-18T13:11:43;38.37;;;18.27;;
3689;SDS011;1861;50.240;8.596;2022-12-18T13:14:30;40.70;;;16.80;;
3689;SDS011;1861;50.240;8.596;2022-12-18T13:20:10;39.77;;;17.20;;
3689;SDS011;1861;50.240;8.596;2022-12-18T13:22:44;44.97;;;17.37;;
3689;SDS011;1861;50.240;8.596;2022-12-18T13:25:30;45.47;;;18.50;;
3689;SDS011;1861;50.240;8.596;2022-12-18T13:28:02;46.10;;;18.30;;
3689;SDS011;1861;50.240;8.596;2022-12-18T13:30:48;40.17;;;18.33;;
3689;SDS011;1861;50.240;8.596;2022-12-18T13:36:35;42.93;;;16.93;;
3689;SDS011;1861;50.240;8.596;2022-12-18T13:45:35;44.23;;;18.23;;
3689;SDS011;1861;50.240;8.596;2022-12-18T13:48:18;40.90;;;16.40;;
3689;SDS011;1861;50.240;8.596;2022-12-18T13:50:49;37.80;;;17.47;;
3689;SDS011;1861;50.240;8.596;2022-12-18T13:53:26;35.63;;;14.73;;
3689;SDS011;1861;50.240;8.596;2022-12-18T13:55:58;40.57;;;17.40;;
3689;SDS011;1861;50.240;8.596;2022-12-18T13:58:27;51.67;;;18.27;;
3689;SDS011;1861;50.240;8.596;2022-12-18T14:00:55;40.63;;;16.33;;
3689;SDS011;1861;50.240;8.596;2022-12-18T14:03:26;39.97;;;16.03;;
3689;SDS011;1861;50.240;8.596;2022-12-18T14:06:01;37.53;;;15.50;;
3689;SDS011;1861;50.240;8.596;2022-12-18T14:08:36;37.17;;;15.27;;
3689;SDS011;1861;50.240;8.596;2022-12-18T14:11:08;36.40;;;16.33;;
3689;SDS011;1861;50.240;8.596;2022-12-18T14:13:48;39.83;;;17.07;;
3689;SDS011;1861;50.240;8.596;2022-12-18T14:16:16;37.53;;;16.60;;
3689;SDS011;1861;50.240;8.596;2022-12-18T14:18:45;41.53;;;16.00;;
3689;SDS011;1861;50.240;8.596;2022-12-18T14:21:17;39.37;;;15.67;;
3689;SDS011;1861;50.240;8.596;2022-12-18T14:23:48;43.00;;;17.03;;
3689;SDS011;1861;50.240;8.596;2022-12-18T14:26:21;45.50;;;17.37;;
3689;SDS011;1861;50.240;8.596;2022-12-18T14:28:53;38.37;;;15.53;;
3689;SDS011;1861;50.240;8.596;2022-12-18T14:31:22;38.53;;;16.40;;
3689;SDS011;1861;50.240;8.596;2022-12-18T14:33:52;49.53;;;17.30;;
3689;SDS011;1861;50.240;8.596;2022-12-18T14:36:22;42.60;;;17.53;;
3689;SDS011;1861;50.240;8.596;2022-12-18T14:38:51;38.10;;;17.13;;
3689;SDS011;1861;50.240;8.596;2022-12-18T14:41:22;53.70;;;16.47;;
3689;SDS011;1861;50.240;8.596;2022-12-18T14:43:52;39.80;;;15.63;;
3689;SDS011;1861;50.240;8.596;2022-12-18T14:46:25;36.77;;;16.97;;
3689;SDS011;1861;50.240;8.596;2022-12-18T14:48:57;36.87;;;16.77;;
3689;SDS011;1861;50.240;8.596;2022-12-18T14:51:26;34.47;;;15.63;;
3689;SDS011;1861;50.240;8.596;2022-12-18T14:53:56;37.43;;;16.00;;
3689;SDS011;1861;50.240;8.596;2022-12-18T14:56:28;38.47;;;16.67;;
3689;SDS011;1861;50.240;8.596;2022-12-18T14:58:58;41.03;;;17.17;;
3689;SDS011;1861;50.240;8.596;2022-12-18T15:01:29;41.07;;;16.23;;
3689;SDS011;1861;50.240;8.596;2022-12-18T15:04:00;36.60;;;15.47;;
3689;SDS011;1861;50.240;8.596;2022-12-18T15:06:30;40.87;;;16.70;;
3689;SDS011;1861;50.240;8.596;2022-12-18T15:09:02;39.27;;;15.80;;
3689;SDS011;1861;50.240;8.596;2022-12-18T15:11:45;35.17;;;15.30;;
3689;SDS011;1861;50.240;8.596;2022-12-18T15:14:23;38.83;;;16.60;;
3689;SDS011;1861;50.240;8.596;2022-12-18T15:16:58;37.00;;;15.23;;
3689;SDS011;1861;50.240;8.596;2022-12-18T15:19:31;35.37;;;14.90;;
3689;SDS011;1861;50.240;8.596;2022-12-18T15:22:02;39.03;;;16.47;;
3689;SDS011;1861;50.240;8.596;2022-12-18T15:24:32;39.83;;;15.60;;
3689;SDS011;1861;50.240;8.596;2022-12-18T15:27:01;34.77;;;15.20;;
3689;SDS011;1861;50.240;8.596;2022-12-18T15:29:30;38.30;;;17.27;;
3689;SDS011;1861;50.240;8.596;2022-12-18T15:31:58;37.00;;;15.57;;
3689;SDS011;1861;50.240;8.596;2022-12-18T15:34:28;43.03;;;16.47;;